Time;durP1;ratioP1;P1;durP2;ratioP2;P2;SDS_P1;SDS_P2;PMS_P1;PMS_P2;Temp;Humidity;BMP_temperature;BMP_pressure;BME280_temperature;BME280_humidity;BME280_pressure;Samples;Min_cycle;Max_cycle;Signal;HPM_P1;HPM_P2
2024/04/19 00:00:25;;;;;;;3.83;2.75;;;10.90;98.10;;;;;;10750476;26;20015;-66
2024/04/19 00:05:16;;;;;;;4.30;2.78;;;10.90;98.20;;;;;;10750614;26;20000;-66
2024/04/19 00:10:07;;;;;;;5.82;3.30;;;10.90;98.10;;;;;;10750706;26;20011;-67
2024/04/19 00:14:58;;;;;;;3.83;2.58;;;10.80;98.10;;;;;;10748952;26;20005;-66
2024/04/19 00:19:50;;;;;;;5.88;3.30;;;10.70;98.10;;;;;;10751710;26;20533;-66
2024/04/19 00:24:40;;;;;;;4.10;2.95;;;10.60;98.10;;;;;;10749180;26;20830;-67
2024/04/19 00:29:31;;;;;;;4.95;3.08;;;10.60;98.20;;;;;;10751677;26;20000;-69
2024/04/19 00:34:21;;;;;;;5.03;3.40;;;10.70;98.20;;;;;;10749221;26;20337;-69
2024/04/19 00:39:12;;;;;;;4.78;3.10;;;10.60;98.10;;;;;;10737575;26;20551;-68
2024/04/19 00:44:03;;;;;;;6.13;3.08;;;10.50;98.20;;;;;;10750476;26;20031;-67
2024/04/19 00:48:54;;;;;;;6.65;2.92;;;10.60;98.20;;;;;;10740840;26;20021;-66
2024/04/19 00:53:44;;;;;;;7.28;2.97;;;10.50;98.30;;;;;;10735554;26;20000;-67
2024/04/19 00:58:35;;;;;;;5.28;3.58;;;10.50;98.30;;;;;;10746177;26;20007;-66
2024/04/19 01:03:26;;;;;;;4.25;3.15;;;10.40;98.30;;;;;;10719551;26;20015;-67
2024/04/19 01:08:17;;;;;;;4.75;2.72;;;10.40;98.40;;;;;;10712270;26;20422;-66
2024/04/19 01:13:08;;;;;;;4.57;3.03;;;10.40;98.40;;;;;;10750913;26;19996;-66
2024/04/19 01:18:00;;;;;;;6.13;3.40;;;10.30;98.40;;;;;;10747638;26;20004;-67
2024/04/19 01:22:51;;;;;;;4.53;3.00;;;10.40;98.50;;;;;;10749002;26;20004;-65
2024/04/19 01:27:41;;;;;;;5.05;3.33;;;10.30;98.40;;;;;;10747925;26;20651;-65
2024/04/19 01:32:32;;;;;;;4.32;3.15;;;10.20;98.40;;;;;;10749135;26;20015;-65
2024/04/19 01:37:23;;;;;;;5.68;3.97;;;10.20;98.50;;;;;;10749119;26;20004;-66
2024/04/19 01:42:13;;;;;;;3.75;3.10;;;10.20;98.60;;;;;;10748997;26;20097;-66
2024/04/19 01:47:04;;;;;;;7.22;3.45;;;10.20;98.50;;;;;;10747509;26;20011;-66
2024/04/19 01:51:56;;;;;;;4.82;3.50;;;10.10;98.50;;;;;;10747628;26;20004;-66
2024/04/19 01:56:47;;;;;;;4.78;3.20;;;10.10;98.60;;;;;;10748622;26;20523;-66
2024/04/19 02:01:37;;;;;;;5.70;3.08;;;10.10;98.60;;;;;;10746865;26;20081;-66
2024/04/19 02:06:28;;;;;;;5.32;3.10;;;10.10;98.60;;;;;;10715260;26;20078;-65
2024/04/19 02:11:19;;;;;;;6.20;3.10;;;10.00;98.50;;;;;;10747518;26;20345;-66
2024/04/19 02:16:09;;;;;;;5.07;3.03;;;10.00;98.50;;;;;;10747120;26;20019;-66
2024/04/19 02:21:00;;;;;;;5.07;3.15;;;10.00;98.50;;;;;;10747777;26;20008;-66
2024/04/19 02:25:50;;;;;;;4.38;2.55;;;9.90;98.60;;;;;;10746700;26;20000;-66
2024/04/19 02:30:59;;;;;;;6.78;3.70;;;9.80;98.60;;;;;;10747055;26;20004;-66
2024/04/19 02:35:50;;;;;;;5.07;3.47;;;9.90;98.70;;;;;;10746372;26;20230;-68
2024/04/19 02:40:40;;;;;;;6.30;3.00;;;9.80;98.70;;;;;;10746635;26;20344;-65
2024/04/19 02:45:31;;;;;;;4.25;2.83;;;9.80;98.70;;;;;;10701982;26;20015;-68
2024/04/19 02:50:21;;;;;;;6.28;3.65;;;9.80;98.80;;;;;;10746888;26;20534;-68
2024/04/19 02:55:12;;;;;;;6.50;3.60;;;9.80;98.70;;;;;;10745676;26;20000;-68
2024/04/19 03:00:04;;;;;;;5.38;3.42;;;9.80;98.70;;;;;;10745705;26;20079;-66
2024/04/19 03:04:54;;;;;;;7.05;3.47;;;9.80;98.70;;;;;;10748839;26;20015;-65
2024/04/19 03:09:47;;;;;;;6.93;3.65;;;9.60;98.80;;;;;;10718262;26;20342;-68
2024/04/19 03:14:37;;;;;;;5.82;3.47;;;9.70;98.60;;;;;;10752718;26;20341;-68
2024/04/19 03:19:28;;;;;;;5.82;3.13;;;9.60;98.70;;;;;;10752542;26;20003;-68
2024/04/19 03:24:19;;;;;;;8.20;3.75;;;9.60;98.60;;;;;;10749721;26;20007;-68
2024/04/19 03:29:09;;;;;;;5.20;3.00;;;9.60;98.60;;;;;;10750850;26;19996;-67
2024/04/19 03:34:00;;;;;;;4.90;2.88;;;9.50;98.80;;;;;;10750729;26;20000;-66
2024/04/19 03:38:51;;;;;;;5.00;2.70;;;9.50;98.80;;;;;;10751116;26;20028;-66
2024/04/19 03:43:51;;;;;;;4.05;2.90;;;9.60;98.80;;;;;;10751842;26;20003;-66
2024/04/19 03:48:42;;;;;;;6.00;3.10;;;9.60;98.70;;;;;;10751512;26;19996;-65
2024/04/19 03:53:33;;;;;;;5.05;3.08;;;9.50;98.80;;;;;;10751556;26;20007;-65
2024/04/19 03:58:23;;;;;;;4.93;3.38;;;9.60;98.70;;;;;;10724761;26;20011;-65
2024/04/19 04:03:14;;;;;;;4.97;3.17;;;9.50;98.80;;;;;;10750753;26;20397;-65
2024/04/19 04:08:05;;;;;;;4.07;2.70;;;9.50;98.80;;;;;;10750458;26;20036;-64
2024/04/19 04:12:56;;;;;;;4.22;2.72;;;9.50;98.90;;;;;;10751078;26;20334;-66
2024/04/19 04:17:46;;;;;;;4.22;3.53;;;9.50;98.80;;;;;;10749719;26;20024;-66
2024/04/19 04:22:37;;;;;;;9.25;3.63;;;9.40;98.80;;;;;;10750444;26;20333;-66
2024/04/19 04:27:28;;;;;;;4.53;3.00;;;9.40;98.90;;;;;;10750674;26;19996;-66
2024/04/19 04:32:21;;;;;;;4.65;3.05;;;9.30;99.00;;;;;;10751069;26;20000;-68
2024/04/19 04:37:11;;;;;;;4.68;3.08;;;9.30;99.00;;;;;;10749604;26;20080;-66
2024/04/19 04:42:02;;;;;;;4.53;3.00;;;9.30;99.10;;;;;;10750102;26;20338;-65
2024/04/19 04:46:53;;;;;;;6.28;3.00;;;9.30;99.10;;;;;;10749332;26;20126;-67
2024/04/19 04:51:44;;;;;;;5.05;2.75;;;9.30;99.30;;;;;;10749965;26;20414;-67
2024/04/19 04:56:35;;;;;;;6.38;3.80;;;9.30;99.10;;;;;;10748225;26;20008;-69
2024/04/19 05:01:25;;;;;;;6.45;3.60;;;9.20;99.20;;;;;;10750079;26;20015;-67
2024/04/19 05:06:16;;;;;;;4.90;3.10;;;9.20;99.10;;;;;;10748697;26;20011;-67
2024/04/19 05:11:07;;;;;;;5.43;3.40;;;9.20;99.10;;;;;;10749692;26;20014;-66
2024/04/19 05:15:58;;;;;;;5.20;2.58;;;9.20;99.10;;;;;;10748802;26;20425;-66
2024/04/19 05:20:48;;;;;;;4.97;2.90;;;9.30;99.20;;;;;;10749360;26;20073;-67
2024/04/19 05:25:39;;;;;;;5.88;3.03;;;9.30;99.20;;;;;;10717385;26;20011;-69
2024/04/19 05:30:30;;;;;;;4.18;2.72;;;9.30;99.10;;;;;;10747792;26;20004;-66
2024/04/19 05:35:20;;;;;;;4.93;2.75;;;9.30;99.10;;;;;;10747976;26;20300;-65
2024/04/19 05:40:11;;;;;;;9.45;2.80;;;9.20;99.20;;;;;;10748025;26;20054;-66
2024/04/19 05:45:03;;;;;;;4.78;3.05;;;9.20;99.40;;;;;;10747552;26;20010;-66
2024/04/19 05:49:53;;;;;;;4.55;2.60;;;9.30;99.30;;;;;;10739885;26;20003;-66
2024/04/19 05:54:44;;;;;;;5.15;2.83;;;9.20;99.30;;;;;;10746960;26;20019;-67
2024/04/19 05:59:35;;;;;;;6.57;3.15;;;9.30;99.30;;;;;;10746293;26;20093;-67
2024/04/19 06:04:25;;;;;;;8.73;3.35;;;9.20;99.30;;;;;;10746432;26;20000;-66
2024/04/19 06:09:16;;;;;;;5.40;2.50;;;9.30;99.40;;;;;;10746935;26;20077;-66
2024/04/19 06:14:07;;;;;;;6.05;2.53;;;9.30;99.40;;;;;;10727972;26;20138;-66
2024/04/19 06:18:57;;;;;;;4.72;3.05;;;9.40;99.30;;;;;;10746686;26;20006;-67
2024/04/19 06:23:48;;;;;;;5.03;2.47;;;9.40;99.30;;;;;;10740464;26;20015;-66
2024/04/19 06:28:40;;;;;;;3.78;2.70;;;9.40;99.40;;;;;;10715739;26;20008;-65
2024/04/19 06:33:31;;;;;;;4.57;2.58;;;9.40;99.40;;;;;;10734800;26;20001;-65
2024/04/19 06:38:22;;;;;;;6.55;3.22;;;9.50;99.40;;;;;;10702558;26;20759;-65
2024/04/19 06:43:12;;;;;;;4.40;2.80;;;9.40;99.40;;;;;;10739693;26;20474;-66
2024/04/19 06:48:04;;;;;;;4.18;2.60;;;9.40;99.50;;;;;;10751813;26;20019;-65
2024/04/19 06:52:54;;;;;;;6.05;2.90;;;9.40;99.60;;;;;;10752730;26;20016;-65
2024/04/19 06:57:45;;;;;;;4.15;2.83;;;9.50;99.60;;;;;;10751910;26;20012;-65
2024/04/19 07:02:35;;;;;;;5.10;2.55;;;9.50;99.60;;;;;;10751679;26;20004;-66
2024/04/19 07:07:26;;;;;;;2.97;1.85;;;9.40;99.60;;;;;;10752342;26;20014;-65
2024/04/19 07:12:17;;;;;;;2.25;1.48;;;9.30;99.60;;;;;;10754242;26;20012;-66
2024/04/19 07:17:07;;;;;;;4.25;1.95;;;9.20;99.80;;;;;;10752258;26;20099;-66
2024/04/19 07:21:58;;;;;;;4.88;2.28;;;9.10;99.80;;;;;;10752676;26;19993;-66
2024/04/19 07:26:49;;;;;;;3.25;2.08;;;9.10;99.90;;;;;;10754889;26;20000;-65
2024/04/19 07:31:39;;;;;;;3.47;2.22;;;9.30;99.90;;;;;;10767098;26;20456;-65
2024/04/19 07:36:31;;;;;;;3.78;2.33;;;9.20;99.90;;;;;;10751298;26;20007;-63
2024/04/19 07:41:21;;;;;;;5.15;2.10;;;9.20;99.90;;;;;;10748022;26;19993;-65
2024/04/19 07:46:12;;;;;;;4.13;2.17;;;9.10;99.90;;;;;;10750749;26;19996;-66
2024/04/19 07:51:03;;;;;;;3.78;2.30;;;9.20;99.90;;;;;;10749511;26;20019;-68
2024/04/19 07:55:54;;;;;;;2.83;2.00;;;9.10;99.90;;;;;;10751784;26;19996;-68
2024/04/19 08:00:47;;;;;;;3.78;2.47;;;9.10;99.90;;;;;;10751681;26;20512;-69
2024/04/19 08:05:38;;;;;;;2.97;1.85;;;9.10;99.90;;;;;;10750488;26;20019;-71
2024/04/19 08:10:28;;;;;;;3.70;2.13;;;9.10;99.90;;;;;;10752024;26;20323;-68
2024/04/19 08:15:19;;;;;;;2.88;2.17;;;9.20;99.90;;;;;;10750703;26;20471;-70
2024/04/19 08:20:10;;;;;;;4.43;2.33;;;9.10;99.90;;;;;;10750228;26;20490;-67
2024/04/19 08:25:01;;;;;;;3.13;2.22;;;9.20;99.90;;;;;;10719118;26;20066;-69
2024/04/19 08:29:53;;;;;;;4.35;2.45;;;9.20;99.90;;;;;;10749654;26;20008;-69
2024/04/19 08:34:47;;;;;;;3.17;1.83;;;9.20;99.90;;;;;;10748623;26;19997;-69
2024/04/19 08:39:38;;;;;;;3.22;2.53;;;9.20;99.90;;;;;;10749783;26;20000;-68
2024/04/19 08:44:29;;;;;;;3.22;1.67;;;9.20;99.90;;;;;;10749316;26;20015;-63
2024/04/19 08:49:21;;;;;;;3.50;2.05;;;9.20;99.90;;;;;;10745806;26;20111;-69
2024/04/19 08:54:12;;;;;;;4.85;2.10;;;9.20;99.90;;;;;;10752002;26;19996;-68
2024/04/19 08:59:03;;;;;;;3.50;2.25;;;9.20;99.90;;;;;;10737747;26;20012;-68
2024/04/19 09:03:54;;;;;;;2.35;1.70;;;9.20;99.90;;;;;;10731436;26;20004;-68
2024/04/19 09:08:45;;;;;;;3.33;1.65;;;9.20;99.90;;;;;;10711813;26;20000;-67
2024/04/19 09:13:36;;;;;;;3.45;1.75;;;9.20;99.90;;;;;;10740683;26;20457;-69
2024/04/19 09:18:27;;;;;;;2.53;1.75;;;9.20;99.90;;;;;;10748594;26;20015;-69
2024/04/19 09:23:18;;;;;;;2.65;1.60;;;9.20;99.90;;;;;;10710274;26;20023;-66
2024/04/19 09:28:12;;;;;;;2.80;1.60;;;9.20;99.90;;;;;;10744376;26;20457;-65
2024/04/19 09:33:03;;;;;;;3.45;2.03;;;9.20;99.90;;;;;;10747053;26;20451;-69
2024/04/19 09:37:55;;;;;;;2.42;1.60;;;9.30;99.90;;;;;;10719656;26;20000;-65
2024/04/19 09:42:48;;;;;;;1.90;1.60;;;9.30;99.90;;;;;;10747977;26;20008;-66
2024/04/19 09:47:40;;;;;;;2.00;1.48;;;9.20;99.90;;;;;;10713614;26;20472;-64
2024/04/19 09:52:31;;;;;;;2.60;1.25;;;9.20;99.90;;;;;;10736970;26;20359;-71
2024/04/19 09:57:23;;;;;;;2.30;1.38;;;9.20;99.90;;;;;;10730096;26;20430;-64
2024/04/19 10:02:15;;;;;;;3.70;1.88;;;9.20;99.90;;;;;;10747171;26;20004;-66
2024/04/19 10:07:10;;;;;;;3.72;1.95;;;9.10;99.90;;;;;;10730232;26;20004;-69
2024/04/19 10:12:02;;;;;;;3.85;2.45;;;9.30;99.90;;;;;;10741399;26;20016;-63
2024/04/19 10:16:55;;;;;;;3.63;1.60;;;9.30;99.90;;;;;;10751924;26;20024;-68
2024/04/19 10:21:50;;;;;;;4.93;2.45;;;9.30;99.90;;;;;;10733134;26;20001;-66
2024/04/19 10:26:43;;;;;;;7.38;3.33;;;9.20;99.90;;;;;;10741837;26;20000;-69
2024/04/19 10:31:34;;;;;;;5.57;2.83;;;9.20;99.90;;;;;;10747978;26;20073;-69
2024/04/19 10:36:31;;;;;;;3.95;2.72;;;9.20;99.90;;;;;;10740632;26;20000;-70
2024/04/19 10:41:22;;;;;;;3.05;2.30;;;9.20;99.90;;;;;;10719815;26;20030;-70
2024/04/19 10:46:15;;;;;;;4.18;2.47;;;9.30;99.90;;;;;;10751983;26;19996;-67
2024/04/19 10:51:06;;;;;;;3.00;1.80;;;9.20;99.90;;;;;;10751594;26;20006;-71
2024/04/19 10:55:57;;;;;;;5.60;2.80;;;9.20;99.90;;;;;;10746075;26;20050;-68
2024/04/19 11:00:48;;;;;;;2.00;1.80;;;9.10;99.90;;;;;;10749404;26;20000;-66
2024/04/19 11:05:39;;;;;;;6.13;2.53;;;9.30;99.90;;;;;;10751289;26;20008;-69
2024/04/19 11:10:30;;;;;;;4.38;2.22;;;9.20;99.90;;;;;;10741785;26;20011;-65
2024/04/19 11:15:21;;;;;;;3.58;1.90;;;9.30;99.90;;;;;;10749777;26;19996;-66
2024/04/19 11:20:11;;;;;;;4.05;2.10;;;9.30;99.90;;;;;;10751206;26;20011;-65
2024/04/19 11:25:03;;;;;;;4.10;1.98;;;9.20;99.90;;;;;;10747677;26;20023;-71
2024/04/19 11:29:54;;;;;;;3.05;2.00;;;9.20;99.90;;;;;;10751211;26;19996;-68
2024/04/19 11:34:47;;;;;;;3.15;1.70;;;9.20;99.90;;;;;;10750917;26;19997;-65
2024/04/19 11:39:38;;;;;;;3.00;1.67;;;9.20;99.90;;;;;;10739086;26;20342;-66
2024/04/19 11:44:29;;;;;;;2.33;1.40;;;9.20;99.90;;;;;;10749246;26;20000;-67
2024/04/19 11:49:19;;;;;;;3.28;2.45;;;9.30;99.90;;;;;;10748336;26;20051;-67
2024/04/19 11:54:11;;;;;;;2.42;1.70;;;9.40;99.90;;;;;;10749784;26;19996;-67
2024/04/19 11:59:02;;;;;;;1.98;1.40;;;9.40;99.90;;;;;;10720750;26;20032;-68
2024/04/19 12:03:53;;;;;;;4.97;1.70;;;9.50;99.90;;;;;;10751187;26;20018;-68
2024/04/19 12:08:44;;;;;;;2.88;1.95;;;9.40;99.90;;;;;;10746331;26;20019;-68
2024/04/19 12:13:34;;;;;;;3.17;1.80;;;9.50;99.90;;;;;;10750343;26;20008;-67
2024/04/19 12:18:25;;;;;;;3.50;1.60;;;9.50;99.90;;;;;;10738107;26;20028;-66
2024/04/19 12:23:16;;;;;;;2.95;1.40;;;9.50;99.90;;;;;;10729959;26;20326;-66
2024/04/19 12:28:06;;;;;;;4.53;1.75;;;9.50;99.90;;;;;;10708996;26;20601;-63
2024/04/19 12:32:57;;;;;;;2.75;1.60;;;9.40;99.90;;;;;;10745118;26;20003;-64
2024/04/19 12:37:49;;;;;;;2.05;1.25;;;9.40;99.90;;;;;;10781828;26;20324;-67
2024/04/19 12:42:39;;;;;;;2.40;1.38;;;9.40;99.90;;;;;;10780060;26;20023;-65
2024/04/19 12:47:31;;;;;;;2.60;1.65;;;9.40;99.90;;;;;;10773303;26;20356;-66
2024/04/19 12:52:22;;;;;;;1.58;1.10;;;9.40;99.90;;;;;;10765485;26;19996;-64
2024/04/19 12:57:13;;;;;;;1.92;1.25;;;9.40;99.90;;;;;;10757537;26;20008;-70
2024/04/19 13:02:06;;;;;;;3.63;1.52;;;9.40;99.90;;;;;;10750033;26;19996;-73
2024/04/19 13:06:57;;;;;;;3.38;1.13;;;9.50;99.90;;;;;;10781428;26;19996;-73
2024/04/19 13:11:47;;;;;;;1.67;1.20;;;9.40;99.90;;;;;;10744731;26;19996;-69
2024/04/19 13:16:38;;;;;;;2.00;1.25;;;9.50;99.90;;;;;;10776936;26;20014;-68
2024/04/19 13:21:29;;;;;;;3.22;1.08;;;9.50;99.90;;;;;;10778447;26;19992;-66
2024/04/19 13:26:22;;;;;;;2.03;1.10;;;9.40;99.90;;;;;;10784102;26;20282;-67
2024/04/19 13:31:15;;;;;;;1.63;1.02;;;9.40;99.90;;;;;;10768393;26;20027;-66
2024/04/19 13:36:06;;;;;;;1.65;1.05;;;9.40;99.90;;;;;;10774762;26;20004;-70
2024/04/19 13:40:57;;;;;;;1.65;1.13;;;9.30;99.90;;;;;;10775301;26;20031;-66
2024/04/19 13:45:47;;;;;;;1.42;1.23;;;9.30;99.90;;;;;;10782943;26;20027;-66
2024/04/19 13:50:39;;;;;;;2.38;1.33;;;9.30;99.90;;;;;;10778105;26;20031;-66
2024/04/19 13:55:30;;;;;;;1.27;1.17;;;9.30;99.90;;;;;;10779403;26;20441;-67
2024/04/19 14:00:21;;;;;;;1.95;1.45;;;9.30;99.90;;;;;;10768300;26;20435;-67
2024/04/19 14:05:12;;;;;;;2.10;1.40;;;9.20;99.90;;;;;;10777538;26;20031;-67
2024/04/19 14:10:02;;;;;;;2.42;1.92;;;9.30;99.90;;;;;;10777445;26;20015;-66
2024/04/19 14:14:53;;;;;;;2.00;1.10;;;9.40;99.90;;;;;;10766253;26;20004;-67
2024/04/19 14:19:46;;;;;;;1.60;1.38;;;9.40;99.90;;;;;;10777660;26;20113;-64
2024/04/19 14:24:37;;;;;;;2.58;1.50;;;9.50;99.90;;;;;;10772088;26;20018;-67
2024/04/19 14:29:28;;;;;;;1.75;1.02;;;9.40;99.90;;;;;;10781031;26;20006;-66
2024/04/19 14:34:18;;;;;;;3.05;1.25;;;9.30;99.90;;;;;;10774727;26;20019;-63
2024/04/19 14:39:09;;;;;;;2.63;1.15;;;9.30;99.90;;;;;;10767200;26;20039;-63
2024/04/19 14:44:01;;;;;;;2.30;1.30;;;9.30;99.90;;;;;;10774471;26;20006;-64
2024/04/19 14:48:52;;;;;;;2.22;1.20;;;9.40;99.90;;;;;;10785482;26;19995;-66
2024/04/19 14:53:48;;;;;;;1.63;1.08;;;9.40;99.90;;;;;;10764078;26;20078;-70
2024/04/19 14:58:39;;;;;;;3.92;1.70;;;9.50;99.90;;;;;;10763048;26;20018;-70
2024/04/19 15:03:29;;;;;;;3.38;1.45;;;9.40;99.90;;;;;;10789294;26;20003;-67
2024/04/19 15:08:20;;;;;;;1.60;1.10;;;9.50;99.90;;;;;;10781952;26;20036;-66
2024/04/19 15:13:10;;;;;;;2.92;1.25;;;9.50;99.90;;;;;;10759454;26;20425;-67
2024/04/19 15:18:02;;;;;;;2.67;1.27;;;9.50;99.90;;;;;;10744700;26;20034;-65
2024/04/19 15:22:57;;;;;;;1.73;1.23;;;9.60;99.90;;;;;;10751281;26;20004;-69
2024/04/19 15:27:47;;;;;;;1.35;1.02;;;9.60;99.90;;;;;;10737530;26;20485;-68
2024/04/19 15:32:38;;;;;;;3.58;1.17;;;9.60;99.90;;;;;;10744141;26;20008;-66
2024/04/19 15:37:28;;;;;;;1.92;1.25;;;9.60;99.90;;;;;;10742242;26;20389;-64
2024/04/19 15:42:19;;;;;;;2.08;0.93;;;9.70;99.90;;;;;;10732917;26;20023;-69
2024/04/19 15:47:11;;;;;;;2.80;1.00;;;9.60;99.90;;;;;;10695015;26;20011;-64
2024/04/19 15:52:02;;;;;;;1.75;1.20;;;9.60;99.90;;;;;;10751297;26;20024;-68
2024/04/19 15:56:52;;;;;;;1.40;0.98;;;9.60;99.90;;;;;;10734928;26;20464;-70
2024/04/19 16:01:43;;;;;;;1.48;0.68;;;9.60;99.90;;;;;;10747094;26;19996;-67
2024/04/19 16:06:39;;;;;;;1.88;1.10;;;9.60;99.90;;;;;;10716191;26;20024;-71
2024/04/19 16:11:29;;;;;;;1.05;0.60;;;9.50;99.90;;;;;;10744486;26;20404;-64
2024/04/19 16:16:20;;;;;;;0.52;0.40;;;9.40;99.90;;;;;;10749410;26;20050;-70
2024/04/19 16:21:11;;;;;;;1.85;0.57;;;9.50;99.90;;;;;;10734585;26;20004;-67
2024/04/19 16:26:02;;;;;;;1.73;0.90;;;9.40;99.90;;;;;;10755740;26;20073;-68
2024/04/19 16:30:52;;;;;;;2.00;0.68;;;9.40;99.90;;;;;;10748883;26;20073;-66
2024/04/19 16:35:43;;;;;;;1.13;0.63;;;9.40;99.90;;;;;;10748974;26;19992;-67
2024/04/19 16:40:33;;;;;;;1.75;0.70;;;9.30;99.90;;;;;;10746850;26;20031;-66
2024/04/19 16:45:24;;;;;;;0.60;0.45;;;9.40;99.90;;;;;;10748846;26;19996;-64
2024/04/19 16:50:15;;;;;;;0.90;0.70;;;9.40;99.90;;;;;;10750052;26;20462;-64
2024/04/19 16:55:06;;;;;;;1.20;0.63;;;9.40;99.90;;;;;;10718169;26;20000;-68
2024/04/19 16:59:56;;;;;;;3.00;1.00;;;9.40;99.90;;;;;;10744794;26;20341;-65
2024/04/19 17:04:47;;;;;;;0.77;0.63;;;9.40;99.90;;;;;;10747833;26;20456;-66
2024/04/19 17:09:38;;;;;;;1.67;0.90;;;9.40;99.90;;;;;;10717947;26;20422;-65
2024/04/19 17:14:29;;;;;;;1.20;0.90;;;9.30;99.90;;;;;;10747577;26;20008;-64
2024/04/19 17:19:19;;;;;;;2.17;1.00;;;9.20;99.90;;;;;;10748371;26;20036;-62
2024/04/19 17:24:10;;;;;;;1.35;0.90;;;9.30;99.90;;;;;;10747014;26;20032;-65
2024/04/19 17:29:01;;;;;;;2.35;0.55;;;9.30;99.90;;;;;;10748333;26;19996;-63
2024/04/19 17:33:51;;;;;;;2.40;1.23;;;9.30;99.90;;;;;;10747764;26;20008;-63
2024/04/19 17:38:42;;;;;;;0.63;0.60;;;9.30;99.90;;;;;;10747352;26;20481;-62
2024/04/19 17:43:34;;;;;;;2.58;0.98;;;9.40;99.90;;;;;;10746859;26;20007;-62
2024/04/19 17:48:25;;;;;;;1.65;0.77;;;9.40;99.90;;;;;;10714851;26;20004;-63
2024/04/19 17:53:15;;;;;;;2.70;1.10;;;9.50;99.90;;;;;;10747521;26;20403;-64
2024/04/19 17:58:06;;;;;;;1.30;0.90;;;9.50;99.90;;;;;;10746422;26;20007;-62
2024/04/19 18:02:57;;;;;;;1.05;0.90;;;9.50;99.90;;;;;;10746850;26;20000;-61
2024/04/19 18:07:47;;;;;;;0.60;0.60;;;9.50;99.90;;;;;;10747210;26;20019;-63
2024/04/19 18:12:38;;;;;;;1.65;0.60;;;9.40;99.90;;;;;;10746565;26;20008;-63
2024/04/19 18:17:29;;;;;;;2.22;1.40;;;9.40;99.90;;;;;;10746635;26;20494;-64
2024/04/19 18:22:19;;;;;;;1.67;0.68;;;9.40;99.90;;;;;;10746223;26;19997;-62
2024/04/19 18:27:10;;;;;;;1.10;0.90;;;9.40;99.90;;;;;;10741654;26;20062;-62
2024/04/19 18:32:01;;;;;;;1.45;0.70;;;9.30;99.90;;;;;;10745624;26;20459;-65
2024/04/19 18:36:51;;;;;;;0.90;0.77;;;9.30;99.90;;;;;;10750636;26;20000;-62
2024/04/19 18:41:42;;;;;;;1.38;0.88;;;9.30;99.90;;;;;;10752664;26;20135;-63
2024/04/19 18:46:33;;;;;;;2.45;1.48;;;9.30;99.90;;;;;;10752495;26;20421;-62
2024/04/19 18:51:24;;;;;;;1.88;1.00;;;9.30;99.90;;;;;;10752660;26;20385;-63
2024/04/19 18:56:15;;;;;;;0.75;0.75;;;9.30;99.90;;;;;;10752692;26;20804;-62
2024/04/19 19:01:12;;;;;;;2.22;1.08;;;9.30;99.90;;;;;;10752671;26;20042;-63
2024/04/19 19:06:03;;;;;;;2.00;1.15;;;9.30;99.90;;;;;;10751552;26;20018;-63
2024/04/19 19:10:55;;;;;;;1.75;0.90;;;9.30;99.90;;;;;;10752301;26;19992;-64
2024/04/19 19:15:56;;;;;;;2.15;1.40;;;9.40;99.90;;;;;;10751892;26;20348;-62
2024/04/19 19:20:46;;;;;;;1.92;1.00;;;9.40;99.90;;;;;;10751665;26;20006;-65
2024/04/19 19:25:38;;;;;;;3.40;1.00;;;9.30;99.90;;;;;;10751224;26;20004;-63
2024/04/19 19:30:29;;;;;;;3.05;1.02;;;9.20;99.90;;;;;;10752201;26;20380;-65
2024/04/19 19:35:19;;;;;;;1.10;0.80;;;9.20;99.90;;;;;;10750708;26;20035;-62
2024/04/19 19:40:10;;;;;;;4.07;1.30;;;9.20;99.90;;;;;;10749177;26;20428;-63
2024/04/19 19:45:01;;;;;;;2.00;0.90;;;9.10;99.90;;;;;;10751071;26;20022;-62
2024/04/19 19:50:03;;;;;;;2.22;0.73;;;9.10;99.90;;;;;;10720242;26;20450;-62
2024/04/19 19:54:54;;;;;;;2.78;1.13;;;9.10;99.90;;;;;;10750891;26;20114;-63
2024/04/19 20:10:03;;;;;;;2.35;1.42;;;9.10;99.90;;;;;;10742867;26;20011;-62
2024/04/19 20:14:54;;;;;;;2.55;1.60;;;9.10;99.90;;;;;;10750586;26;20018;-62
2024/04/19 20:19:44;;;;;;;2.42;1.30;;;9.10;99.90;;;;;;10751188;26;20024;-62
2024/04/19 20:24:35;;;;;;;3.13;1.00;;;9.10;99.90;;;;;;10750971;26;20330;-63
2024/04/19 20:29:25;;;;;;;3.90;1.50;;;9.10;99.90;;;;;;10750747;26;20077;-63
2024/04/19 20:34:17;;;;;;;2.38;1.48;;;9.20;99.90;;;;;;10749806;26;20012;-63
2024/04/19 20:39:08;;;;;;;4.28;2.15;;;9.10;99.90;;;;;;10750530;26;20016;-63
2024/04/19 20:43:58;;;;;;;3.05;1.58;;;9.10;99.90;;;;;;10755986;26;20008;-63
2024/04/19 20:48:49;;;;;;;3.20;1.88;;;9.20;99.90;;;;;;10785262;26;20004;-64
2024/04/19 20:53:39;;;;;;;4.30;1.73;;;9.20;99.90;;;;;;10777667;26;20003;-63
2024/04/19 20:58:30;;;;;;;2.45;1.48;;;9.20;99.90;;;;;;10771163;26;20000;-63
2024/04/19 21:03:21;;;;;;;4.15;1.30;;;9.20;99.90;;;;;;10757704;26;20010;-64
2024/04/19 21:08:11;;;;;;;1.80;0.88;;;9.10;99.90;;;;;;10775046;26;20000;-65
2024/04/19 21:13:02;;;;;;;1.35;0.98;;;9.10;99.90;;;;;;10779201;26;19999;-65
2024/04/19 21:17:53;;;;;;;1.25;0.82;;;9.10;99.90;;;;;;10760582;26;20008;-65
2024/04/19 21:22:43;;;;;;;2.58;1.77;;;9.10;99.90;;;;;;10779040;26;20005;-63
2024/04/19 21:27:34;;;;;;;2.70;1.63;;;9.20;99.90;;;;;;10769791;26;20528;-61
2024/04/19 21:32:25;;;;;;;2.38;0.70;;;9.20;99.90;;;;;;10748874;26;20384;-62
2024/04/19 21:37:18;;;;;;;1.33;1.20;;;9.10;99.90;;;;;;10739761;26;20438;-64
2024/04/19 21:42:08;;;;;;;3.45;0.95;;;9.20;99.90;;;;;;10740801;26;20003;-68
2024/04/19 21:46:59;;;;;;;2.03;0.77;;;9.20;99.90;;;;;;10746969;26;20007;-64
2024/04/19 21:51:50;;;;;;;4.18;1.23;;;9.10;99.90;;;;;;10743390;26;19996;-64
2024/04/19 21:56:40;;;;;;;3.20;1.20;;;9.10;99.90;;;;;;10745608;26;20015;-63
2024/04/19 22:01:31;;;;;;;2.05;1.10;;;9.10;99.90;;;;;;10747036;26;20420;-63
2024/04/19 22:06:21;;;;;;;2.33;1.15;;;9.00;99.90;;;;;;10746455;26;20004;-61
2024/04/19 22:11:12;;;;;;;7.28;1.85;;;9.00;99.90;;;;;;10752413;26;20033;-62
2024/04/19 22:16:06;;;;;;;1.23;0.85;;;8.90;99.90;;;;;;10753443;26;20430;-63
2024/04/19 22:21:07;;;;;;;1.88;1.15;;;8.90;99.90;;;;;;10754569;26;20252;-62
2024/04/19 22:26:03;;;;;;;2.95;1.42;;;8.90;99.90;;;;;;10748640;26;20000;-61
2024/04/19 22:30:59;;;;;;;2.88;1.38;;;8.80;99.90;;;;;;10750884;26;20698;-64
2024/04/19 22:35:49;;;;;;;1.95;0.90;;;8.70;99.90;;;;;;10752944;26;20023;-64
2024/04/19 22:40:41;;;;;;;2.30;1.52;;;8.80;99.90;;;;;;10752697;26;20032;-64
2024/04/19 22:45:38;;;;;;;6.60;1.17;;;8.70;99.90;;;;;;10741872;26;20029;-63
2024/04/19 22:50:29;;;;;;;1.42;0.93;;;8.70;99.90;;;;;;10752203;26;20011;-62
2024/04/19 22:55:19;;;;;;;1.50;1.02;;;8.60;99.90;;;;;;10751461;26;20126;-63
2024/04/19 23:00:10;;;;;;;3.83;1.00;;;8.70;99.90;;;;;;10744551;26;20438;-61
2024/04/19 23:05:01;;;;;;;3.17;1.52;;;8.60;99.90;;;;;;10733603;26;20004;-64
2024/04/19 23:09:52;;;;;;;3.15;1.52;;;8.60;99.90;;;;;;10727528;26;20008;-68
2024/04/19 23:14:42;;;;;;;2.83;1.42;;;8.60;99.90;;;;;;10795981;26;19993;-64
2024/04/19 23:19:33;;;;;;;5.40;1.40;;;8.60;99.90;;;;;;10773863;26;20251;-63
2024/04/19 23:24:24;;;;;;;1.77;0.80;;;8.60;99.90;;;;;;10752531;26;20496;-62
2024/04/19 23:29:14;;;;;;;5.00;1.30;;;8.60;99.90;;;;;;10753928;26;20077;-63
2024/04/19 23:34:05;;;;;;;4.88;1.42;;;8.60;99.90;;;;;;10752962;26;20255;-64
2024/04/19 23:38:56;;;;;;;4.43;1.40;;;8.60;99.90;;;;;;10733904;26;20077;-64
2024/04/19 23:43:46;;;;;;;3.67;0.88;;;8.50;99.90;;;;;;10722574;26;20000;-63
2024/04/19 23:48:37;;;;;;;2.97;1.58;;;8.40;99.90;;;;;;10751366;26;20015;-63
2024/04/19 23:53:28;;;;;;;7.05;1.30;;;8.40;99.90;;;;;;10749223;26;20453;-64
2024/04/19 23:58:18;;;;;;;4.63;0.80;;;8.40;99.90;;;;;;10701575;26;20374;-62
